createdAt,value
2022-11-21T00:01:32.100Z,6.14
2022-11-21T00:04:35.308Z,6.14
2022-11-21T00:07:37.325Z,6.13
2022-11-21T00:10:39.935Z,6.16
2022-11-21T00:13:41.732Z,6.15
2022-11-21T00:16:45.421Z,6.08
2022-11-21T00:19:48.424Z,6.07
2022-11-21T00:22:50.398Z,6.10
2022-11-21T00:25:52.038Z,6.09
2022-11-21T00:28:53.793Z,6.15
2022-11-21T00:31:55.510Z,6.14
2022-11-21T00:34:58.476Z,6.18
2022-11-21T00:38:00.109Z,6.24
2022-11-21T00:41:01.747Z,6.29
2022-11-21T00:44:03.649Z,6.35
2022-11-21T00:47:05.384Z,6.38
2022-11-21T00:50:09.847Z,6.40
2022-11-21T00:53:11.691Z,6.33
2022-11-21T00:56:13.576Z,6.32
2022-11-21T00:59:15.226Z,6.32
2022-11-21T01:02:16.914Z,6.25
2022-11-21T01:05:19.977Z,6.43
2022-11-21T01:08:21.614Z,6.42
2022-11-21T01:11:23.390Z,6.39
2022-11-21T01:14:25.351Z,6.61
2022-11-21T01:17:27.370Z,6.60
2022-11-21T01:20:30.331Z,6.61
2022-11-21T01:23:31.959Z,6.96
2022-11-21T01:26:33.947Z,6.68
2022-11-21T01:29:35.595Z,6.38
2022-11-21T01:32:37.219Z,6.23
2022-11-21T01:35:40.171Z,6.15
2022-11-21T01:38:43.895Z,6.03
2022-11-21T01:41:46.257Z,5.91
2022-11-21T01:44:50.726Z,5.84
2022-11-21T01:47:52.312Z,5.94
2022-11-21T01:50:58.704Z,5.92
2022-11-21T01:54:05.374Z,5.91
2022-11-21T01:57:10.203Z,6.00
2022-11-21T02:00:16.197Z,6.02
2022-11-21T02:03:22.555Z,6.00
2022-11-21T02:06:27.545Z,5.92
2022-11-21T02:09:31.700Z,5.88
2022-11-21T02:12:40.917Z,5.83
2022-11-21T02:15:42.706Z,5.72
2022-11-21T02:18:44.427Z,5.74
2022-11-21T02:21:54.434Z,5.69
2022-11-21T02:25:05.073Z,5.65
2022-11-21T02:28:09.424Z,5.66
2022-11-21T02:31:11.032Z,5.60
2022-11-21T02:34:12.815Z,5.51
2022-11-21T02:37:14.529Z,5.56
2022-11-21T02:40:21.935Z,5.69
2022-11-21T02:43:25.828Z,5.79
2022-11-21T02:46:27.918Z,5.90
2022-11-21T02:49:39.586Z,5.92
2022-11-21T02:52:41.582Z,5.98
2022-11-21T02:55:44.884Z,5.98
2022-11-21T02:58:46.529Z,5.99
2022-11-21T03:01:48.147Z,6.02
2022-11-21T03:04:49.879Z,6.01
2022-11-21T03:07:51.631Z,6.03
2022-11-21T03:10:54.661Z,5.99
2022-11-21T03:13:56.317Z,5.97
2022-11-21T03:16:57.866Z,5.91
2022-11-21T03:19:59.707Z,5.89
2022-11-21T03:23:01.833Z,5.88
2022-11-21T03:26:04.803Z,5.95
2022-11-21T03:29:07.250Z,5.91
2022-11-21T03:32:08.900Z,6.02
2022-11-21T03:35:11.606Z,6.00
2022-11-21T03:38:13.228Z,5.99
2022-11-21T03:41:31.203Z,5.97
2022-11-21T03:44:32.798Z,5.96
2022-11-21T03:47:34.507Z,5.90
2022-11-21T03:50:36.214Z,5.92
2022-11-21T03:53:37.826Z,5.95
2022-11-21T03:56:40.839Z,6.00
2022-11-21T03:59:42.623Z,6.02
2022-11-21T04:02:44.432Z,6.02
2022-11-21T04:05:46.053Z,6.00
2022-11-21T04:08:48.123Z,6.00
2022-11-21T04:11:51.090Z,6.01
2022-11-21T04:14:52.878Z,6.05
2022-11-21T04:17:54.587Z,6.06
2022-11-21T04:20:57.785Z,6.12
2022-11-21T04:23:59.409Z,6.09
2022-11-21T04:27:02.344Z,6.03
2022-11-21T04:30:04.920Z,5.93
2022-11-21T04:33:06.834Z,5.92
2022-11-21T04:36:09.149Z,5.96
2022-11-21T04:39:10.826Z,5.99
2022-11-21T04:42:13.898Z,6.04
2022-11-21T04:45:16.385Z,6.08
2022-11-21T04:48:18.045Z,6.07
2022-11-21T04:51:19.762Z,6.14
2022-11-21T04:54:21.399Z,6.15
2022-11-21T04:57:24.890Z,6.20
2022-11-21T05:00:26.617Z,6.26
2022-11-21T05:03:28.235Z,6.28
2022-11-21T05:06:30.099Z,6.29
2022-11-21T05:09:31.726Z,6.29
2022-11-21T05:12:53.195Z,6.30
2022-11-21T05:15:56.846Z,6.33
2022-11-21T05:18:58.561Z,6.33
2022-11-21T05:22:00.200Z,6.30
2022-11-21T05:25:02.015Z,6.34
2022-11-21T05:28:05.397Z,6.37
2022-11-21T05:31:07.186Z,6.36
2022-11-21T05:34:08.993Z,6.39
2022-11-21T05:37:10.654Z,6.42
2022-11-21T05:40:12.715Z,6.36
2022-11-21T05:43:34.422Z,6.38
2022-11-21T05:46:36.066Z,6.42
2022-11-21T05:49:37.717Z,6.28
2022-11-21T05:52:39.359Z,6.36
2022-11-21T05:55:41.040Z,6.36
2022-11-21T05:58:44.678Z,6.48
2022-11-21T06:02:18.609Z,6.47
2022-11-21T06:05:20.291Z,6.45
2022-11-21T06:08:21.952Z,6.41
2022-11-21T06:11:23.666Z,6.37
2022-11-21T06:14:27.036Z,6.36
2022-11-21T06:17:28.990Z,6.38
2022-11-21T06:20:30.633Z,6.41
2022-11-21T06:23:32.496Z,6.44
2022-11-21T06:26:34.056Z,6.36
2022-11-21T06:29:37.214Z,6.49
2022-11-21T06:32:38.817Z,6.48
2022-11-21T06:35:40.555Z,6.53
2022-11-21T06:38:42.582Z,6.45
2022-11-21T06:41:50.780Z,6.49
2022-11-21T06:44:53.839Z,6.53
2022-11-21T06:47:55.651Z,6.48
2022-11-21T06:50:58.008Z,6.47
2022-11-21T06:53:59.761Z,6.38
2022-11-21T06:57:01.522Z,6.46
2022-11-21T07:00:06.400Z,6.47
2022-11-21T07:03:08.063Z,6.44
2022-11-21T07:06:09.907Z,6.52
2022-11-21T07:09:32.367Z,6.51
2022-11-21T07:12:53.091Z,6.49
2022-11-21T07:16:02.038Z,6.42
2022-11-21T07:19:03.625Z,6.33
2022-11-21T07:22:05.557Z,6.26
2022-11-21T07:25:07.601Z,6.23
2022-11-21T07:28:09.979Z,6.32
2022-11-21T07:31:14.120Z,6.31
2022-11-21T07:34:15.971Z,6.33
2022-11-21T07:37:17.684Z,6.38
2022-11-21T07:40:20.446Z,6.41
2022-11-21T07:43:22.110Z,6.26
2022-11-21T07:46:25.134Z,6.38
2022-11-21T07:49:27.088Z,6.42
2022-11-21T07:52:30.365Z,6.51
2022-11-21T07:55:37.695Z,6.62
2022-11-21T07:58:42.029Z,6.70
2022-11-21T08:01:45.713Z,6.75
2022-11-21T08:04:47.837Z,6.75
2022-11-21T08:07:49.968Z,6.82
2022-11-21T08:10:51.618Z,6.86
2022-11-21T08:13:53.342Z,6.88
2022-11-21T08:16:56.365Z,6.91
2022-11-21T08:20:00.207Z,6.87
2022-11-21T08:23:01.945Z,6.98
2022-11-21T08:26:03.629Z,7.02
2022-11-21T08:29:05.256Z,6.97
2022-11-21T08:32:08.288Z,6.93
2022-11-21T08:35:10.020Z,6.88
2022-11-21T08:38:11.780Z,6.90
2022-11-21T08:41:31.881Z,6.83
2022-11-21T08:44:34.704Z,6.79
2022-11-21T08:47:37.831Z,6.87
2022-11-21T08:50:39.507Z,6.84
2022-11-21T08:53:41.214Z,6.85
2022-11-21T08:56:42.966Z,6.76
2022-11-21T08:59:44.658Z,6.74
2022-11-21T09:02:47.694Z,6.73
2022-11-21T09:05:49.323Z,6.73
2022-11-21T09:08:51.506Z,6.76
2022-11-21T09:11:53.184Z,6.83
2022-11-21T09:15:13.797Z,6.81
2022-11-21T09:18:16.790Z,6.82
2022-11-21T09:21:19.363Z,6.84
2022-11-21T09:24:21.216Z,6.97
2022-11-21T09:27:22.810Z,7.10
2022-11-21T09:30:24.439Z,7.21
2022-11-21T09:33:27.402Z,7.19
2022-11-21T09:36:29.087Z,7.18
2022-11-21T09:39:30.967Z,7.24
2022-11-21T09:42:54.849Z,7.26
2022-11-21T09:46:02.985Z,7.38
2022-11-21T09:49:10.610Z,7.51
2022-11-21T09:52:15.670Z,7.49
2022-11-21T09:55:23.625Z,7.40
2022-11-21T09:58:31.268Z,7.30
2022-11-21T10:01:33.086Z,7.35
2022-11-21T10:04:36.285Z,7.43
2022-11-21T10:07:38.255Z,7.47
2022-11-21T10:10:53.174Z,7.44
2022-11-21T10:14:09.757Z,7.55
2022-11-21T10:17:22.696Z,7.92
2022-11-21T10:20:40.475Z,8.08
2022-11-21T10:24:08.945Z,8.18
2022-11-21T10:27:16.222Z,8.10
2022-11-21T10:30:19.673Z,7.84
2022-11-21T10:33:26.744Z,8.26
2022-11-21T10:36:35.935Z,8.27
2022-11-21T10:39:43.327Z,8.12
2022-11-21T10:42:51.521Z,8.01
2022-11-21T10:45:53.982Z,8.11
2022-11-21T10:48:59.069Z,8.11
2022-11-21T10:52:06.341Z,8.12
2022-11-21T10:55:11.330Z,8.18
2022-11-21T10:58:19.235Z,8.56
2022-11-21T11:01:24.695Z,8.86
2022-11-21T11:04:29.089Z,9.12
2022-11-21T11:07:32.662Z,9.32
2022-11-21T11:10:36.383Z,9.81
2022-11-21T11:13:54.750Z,10.12
2022-11-21T11:16:56.579Z,10.02
2022-11-21T11:20:04.756Z,10.16
2022-11-21T11:23:23.541Z,10.28
2022-11-21T11:26:28.158Z,9.99
2022-11-21T11:29:31.292Z,9.66
2022-11-21T11:32:38.755Z,9.79
2022-11-21T11:35:40.611Z,9.80
2022-11-21T11:38:53.943Z,9.36
2022-11-21T11:42:43.124Z,9.58
2022-11-21T11:46:18.543Z,9.65
2022-11-21T11:49:27.029Z,9.79
2022-11-21T11:52:33.091Z,9.78
2022-11-21T11:55:42.024Z,9.74
2022-11-21T11:58:49.495Z,10.21
2022-11-21T12:01:56.423Z,10.44
2022-11-21T12:05:05.365Z,10.41
2022-11-21T12:08:40.341Z,10.70
2022-11-21T12:12:08.498Z,11.07
2022-11-21T12:15:33.618Z,10.90
2022-11-21T12:18:44.143Z,11.36
2022-11-21T12:21:46.086Z,11.60
2022-11-21T12:24:48.713Z,10.73
2022-11-21T12:27:54.882Z,10.68
2022-11-21T12:31:09.243Z,10.13
2022-11-21T12:34:31.991Z,9.76
2022-11-21T12:37:44.213Z,9.68
2022-11-21T12:40:59.115Z,9.71
2022-11-21T12:44:14.130Z,9.56
2022-11-21T12:47:30.883Z,9.63
2022-11-21T12:51:00.147Z,9.52
2022-11-21T12:54:28.815Z,9.74
2022-11-21T12:57:43.809Z,10.62
2022-11-21T13:01:21.222Z,11.20
2022-11-21T13:04:28.674Z,11.28
2022-11-21T13:07:32.189Z,11.32
2022-11-21T13:10:34.243Z,11.41
2022-11-21T13:13:37.122Z,11.18
2022-11-21T13:16:48.166Z,11.03
2022-11-21T13:19:54.951Z,10.24
2022-11-21T13:22:58.951Z,9.78
2022-11-21T13:26:00.793Z,9.83
2022-11-21T13:29:08.741Z,9.65
2022-11-21T13:32:39.201Z,9.69
2022-11-21T13:36:05.623Z,9.63
2022-11-21T13:39:32.274Z,9.63
2022-11-21T13:46:59.529Z,9.81
2022-11-21T13:50:10.813Z,9.92
2022-11-21T13:53:28.240Z,10.10
2022-11-21T13:56:39.594Z,10.31
2022-11-21T13:59:57.578Z,10.21
2022-11-21T14:03:17.206Z,10.38
2022-11-21T14:06:34.945Z,10.66
2022-11-21T14:09:46.111Z,10.63
2022-11-21T14:12:50.226Z,10.46
2022-11-21T14:16:05.914Z,9.96
2022-11-21T14:19:13.603Z,9.98
2022-11-21T14:22:30.435Z,9.85
2022-11-21T14:25:37.530Z,9.63
2022-11-21T14:28:39.307Z,9.49
2022-11-21T14:31:45.433Z,9.42
2022-11-21T14:34:47.156Z,9.21
2022-11-21T14:37:51.177Z,9.04
2022-11-21T14:41:27.664Z,8.94
2022-11-21T14:44:29.600Z,8.85
2022-11-21T14:47:31.324Z,8.31
2022-11-21T14:50:35.008Z,8.20
2022-11-21T14:53:41.276Z,8.18
2022-11-21T14:56:43.275Z,7.99
2022-11-21T14:59:45.111Z,7.98
2022-11-21T15:02:47.112Z,8.08
2022-11-21T15:06:07.480Z,8.00
2022-11-21T15:12:44.670Z,7.70
2022-11-21T15:15:53.376Z,7.69
2022-11-21T15:18:55.273Z,7.54
2022-11-21T15:21:58.870Z,7.58
2022-11-21T15:25:17.490Z,7.51
2022-11-21T15:28:19.355Z,7.49
2022-11-21T15:31:21.720Z,7.45
2022-11-21T15:34:35.352Z,7.41
2022-11-21T15:37:37.870Z,7.60
2022-11-21T15:40:44.287Z,7.37
2022-11-21T15:43:49.780Z,7.41
2022-11-21T15:46:52.962Z,7.28
2022-11-21T15:49:54.974Z,7.32
2022-11-21T15:52:56.906Z,7.31
2022-11-21T15:56:00.059Z,7.24
2022-11-21T15:59:02.608Z,7.17
2022-11-21T16:02:04.473Z,7.16
2022-11-21T16:05:06.666Z,7.18
2022-11-21T16:08:08.310Z,7.12
2022-11-21T16:11:17.679Z,7.10
2022-11-21T16:14:19.310Z,7.00
2022-11-21T16:17:21.282Z,6.92
2022-11-21T16:20:23.056Z,6.91
2022-11-21T16:23:24.692Z,6.78
2022-11-21T16:26:28.802Z,6.70
2022-11-21T16:29:30.982Z,6.67
2022-11-21T16:32:32.939Z,6.57
2022-11-21T16:35:34.611Z,6.65
2022-11-21T16:38:36.290Z,6.61
2022-11-21T16:41:40.932Z,6.59
2022-11-21T16:44:42.651Z,6.51
2022-11-21T16:47:48.573Z,6.49
2022-11-21T16:50:50.691Z,6.50
2022-11-21T16:53:52.272Z,6.51
2022-11-21T16:56:55.328Z,6.58
2022-11-21T16:59:59.149Z,6.57
2022-11-21T17:03:01.267Z,6.57
2022-11-21T17:06:02.977Z,6.70
2022-11-21T17:09:04.687Z,6.63
2022-11-21T17:12:08.083Z,6.63
2022-11-21T17:15:12.467Z,6.71
2022-11-21T17:18:14.136Z,6.88
2022-11-21T17:21:16.384Z,6.84
2022-11-21T17:24:18.440Z,6.71
2022-11-21T17:27:22.364Z,6.71
2022-11-21T17:30:24.218Z,6.73
2022-11-21T17:33:26.220Z,6.69
2022-11-21T17:36:29.415Z,6.59
2022-11-21T17:39:31.553Z,6.49
2022-11-21T17:42:34.834Z,6.57
2022-11-21T17:45:36.522Z,6.47
2022-11-21T17:48:38.690Z,6.72
2022-11-21T17:51:40.855Z,7.01
2022-11-21T17:54:42.585Z,7.05
2022-11-21T17:57:46.944Z,7.07
2022-11-21T18:00:54.582Z,7.06
2022-11-21T18:03:58.205Z,7.02
2022-11-21T18:06:59.827Z,7.13
2022-11-21T18:10:27.439Z,7.09
2022-11-21T18:13:25.181Z,7.24
2022-11-21T18:16:28.822Z,7.32
2022-11-21T18:19:30.526Z,7.29
2022-11-21T18:22:32.138Z,7.45
2022-11-21T18:25:34.736Z,7.41
2022-11-21T18:28:37.994Z,7.32
2022-11-21T18:31:39.671Z,7.14
2022-11-21T18:34:41.325Z,7.20
2022-11-21T18:37:43.046Z,7.09
2022-11-21T18:40:44.692Z,7.01
2022-11-21T18:43:51.671Z,7.31
2022-11-21T18:46:53.594Z,7.28
2022-11-21T18:49:55.377Z,7.13
2022-11-21T18:52:57.128Z,6.90
2022-11-21T18:55:59.280Z,6.91
2022-11-21T18:59:03.465Z,6.94
2022-11-21T19:02:05.322Z,6.80
2022-11-21T19:05:07.571Z,6.70
2022-11-21T19:08:09.319Z,6.95
2022-11-21T19:11:13.128Z,7.08
2022-11-21T19:14:16.146Z,7.15
2022-11-21T19:17:18.415Z,7.43
2022-11-21T19:20:20.087Z,7.36
2022-11-21T19:23:21.821Z,7.55
2022-11-21T19:26:23.736Z,7.66
2022-11-21T19:29:27.064Z,7.67
2022-11-21T19:32:30.786Z,7.81
2022-11-21T19:35:32.450Z,7.68
2022-11-21T19:38:34.354Z,7.70
2022-11-21T19:41:36.384Z,7.56
2022-11-21T19:44:39.487Z,7.67
2022-11-21T19:47:41.188Z,7.71
2022-11-21T19:50:49.284Z,7.63
2022-11-21T19:53:52.428Z,7.57
2022-11-21T19:56:54.115Z,7.47
2022-11-21T19:59:57.207Z,7.36
2022-11-21T20:02:58.981Z,7.48
2022-11-21T20:06:04.851Z,7.47
2022-11-21T20:09:08.046Z,7.57
2022-11-21T20:12:09.694Z,7.51
2022-11-21T20:15:12.814Z,7.60
2022-11-21T20:18:14.519Z,7.65
2022-11-21T20:21:17.379Z,7.76
2022-11-21T20:24:19.228Z,7.77
2022-11-21T20:27:20.909Z,7.67
2022-11-21T20:30:24.977Z,7.73
2022-11-21T20:33:26.606Z,7.63
2022-11-21T20:36:29.916Z,7.49
2022-11-21T20:39:32.251Z,7.57
2022-11-21T20:42:34.470Z,7.42
2022-11-21T20:48:59.169Z,7.57
2022-11-21T20:55:22.529Z,7.58
2022-11-21T20:58:24.356Z,7.42
2022-11-21T21:01:28.459Z,7.41
2022-11-21T21:04:30.245Z,7.32
2022-11-21T21:07:31.988Z,7.21
2022-11-21T21:10:51.471Z,7.23
2022-11-21T21:13:55.364Z,7.05
2022-11-21T21:16:58.410Z,7.07
2022-11-21T21:20:00.094Z,7.03
2022-11-21T21:23:01.852Z,6.98
2022-11-21T21:26:11.806Z,6.88
2022-11-21T21:29:16.184Z,6.86
2022-11-21T21:32:19.288Z,6.76
2022-11-21T21:35:21.066Z,6.69
2022-11-21T21:38:22.666Z,6.65
2022-11-21T21:41:26.521Z,6.66
2022-11-21T21:44:32.959Z,6.62
2022-11-21T21:47:36.626Z,6.61
2022-11-21T21:50:38.306Z,6.61
2022-11-21T21:53:40.141Z,6.51
2022-11-21T21:56:41.800Z,6.52
2022-11-21T21:59:43.523Z,6.71
2022-11-21T22:02:46.575Z,6.54
2022-11-21T22:05:48.224Z,6.51
2022-11-21T22:08:50.731Z,6.48
2022-11-21T22:11:54.008Z,6.43
2022-11-21T22:14:55.686Z,6.34
2022-11-21T22:17:58.819Z,6.34
2022-11-21T22:21:01.154Z,6.36
2022-11-21T22:27:25.992Z,6.41
2022-11-21T22:30:27.640Z,6.40
2022-11-21T22:33:30.757Z,6.52
2022-11-21T22:36:32.837Z,6.34
2022-11-21T22:39:34.499Z,6.37
2022-11-21T22:42:36.152Z,6.38
2022-11-21T22:45:37.812Z,6.40
2022-11-21T22:48:40.878Z,6.27
2022-11-21T22:51:43.661Z,6.28
2022-11-21T22:54:45.380Z,6.27
2022-11-21T22:57:47.112Z,6.24
2022-11-21T23:00:48.739Z,6.18
2022-11-21T23:03:52.232Z,6.20
2022-11-21T23:06:53.869Z,6.15
2022-11-21T23:09:55.716Z,6.14
2022-11-21T23:12:57.514Z,6.19
2022-11-21T23:15:59.594Z,6.31
2022-11-21T23:19:02.723Z,6.29
2022-11-21T23:22:04.435Z,6.24
2022-11-21T23:25:06.501Z,6.27
2022-11-21T23:28:08.532Z,6.30
2022-11-21T23:31:10.768Z,6.35
2022-11-21T23:34:13.852Z,6.34
2022-11-21T23:37:15.501Z,6.40
2022-11-21T23:40:17.379Z,6.38
2022-11-21T23:43:19.365Z,6.41
2022-11-21T23:46:21.073Z,6.39
2022-11-21T23:49:24.103Z,6.54
2022-11-21T23:52:25.709Z,6.52
2022-11-21T23:55:27.688Z,6.55
2022-11-21T23:58:29.340Z,6.55
